createdAt,value
2018-10-09T00:02:12.286Z,8.92
2018-10-09T00:04:39.496Z,8.86
2018-10-09T00:07:06.767Z,8.68
2018-10-09T00:09:33.974Z,8.61
2018-10-09T00:12:01.233Z,8.60
2018-10-09T00:14:28.521Z,8.70
2018-10-09T00:16:55.783Z,8.68
2018-10-09T00:19:22.999Z,8.78
2018-10-09T00:21:50.252Z,8.82
2018-10-09T00:24:17.469Z,8.91
2018-10-09T00:26:44.716Z,8.39
2018-10-09T00:29:11.945Z,8.18
2018-10-09T00:31:39.269Z,8.34
2018-10-09T00:34:06.547Z,8.56
2018-10-09T00:36:34.349Z,8.52
2018-10-09T00:39:01.585Z,8.17
2018-10-09T00:41:28.783Z,8.43
2018-10-09T00:43:56.058Z,8.37
2018-10-09T00:46:23.282Z,8.55
2018-10-09T00:48:50.481Z,8.55
2018-10-09T00:51:17.748Z,8.17
2018-10-09T00:53:44.996Z,8.28
2018-10-09T00:56:12.283Z,8.28
2018-10-09T00:58:39.592Z,8.32
2018-10-09T01:01:06.836Z,8.22
2018-10-09T01:03:34.077Z,8.21
2018-10-09T01:06:01.437Z,8.35
2018-10-09T01:08:28.681Z,8.55
2018-10-09T01:10:55.920Z,8.61
2018-10-09T01:13:23.182Z,8.50
2018-10-09T01:15:50.372Z,8.71
2018-10-09T01:18:17.616Z,8.61
2018-10-09T01:20:44.894Z,8.64
2018-10-09T01:23:12.163Z,8.67
2018-10-09T01:25:39.395Z,8.73
2018-10-09T01:28:06.614Z,8.81
2018-10-09T01:30:34.249Z,8.80
2018-10-09T01:33:01.897Z,8.61
2018-10-09T01:35:29.149Z,8.46
2018-10-09T01:37:56.366Z,8.57
2018-10-09T01:40:23.630Z,8.53
2018-10-09T01:42:50.850Z,8.69
2018-10-09T01:45:18.099Z,8.74
2018-10-09T01:47:45.374Z,8.77
2018-10-09T01:50:12.596Z,8.73
2018-10-09T01:52:39.815Z,8.14
2018-10-09T01:55:07.223Z,8.17
2018-10-09T01:57:34.588Z,8.18
2018-10-09T02:00:01.908Z,8.44
2018-10-09T02:02:29.105Z,8.41
2018-10-09T02:04:56.375Z,7.90
2018-10-09T02:07:23.634Z,7.91
2018-10-09T02:09:51.744Z,8.06
2018-10-09T02:12:18.999Z,8.30
2018-10-09T02:14:46.163Z,8.38
2018-10-09T02:17:13.436Z,8.49
2018-10-09T02:19:40.633Z,8.62
2018-10-09T02:22:07.836Z,8.71
2018-10-09T02:24:34.993Z,8.52
2018-10-09T02:27:02.266Z,8.17
2018-10-09T02:29:29.570Z,8.03
2018-10-09T02:31:56.774Z,8.19
2018-10-09T02:34:24.001Z,7.95
2018-10-09T02:36:51.287Z,7.82
2018-10-09T02:39:18.529Z,7.75
2018-10-09T02:41:45.753Z,7.72
2018-10-09T02:44:12.962Z,7.67
2018-10-09T02:46:40.163Z,7.72
2018-10-09T02:49:07.435Z,7.62
2018-10-09T02:51:35.028Z,7.59
2018-10-09T02:54:02.279Z,7.55
2018-10-09T02:56:29.516Z,7.75
2018-10-09T02:58:56.729Z,7.98
2018-10-09T03:01:23.949Z,8.13
2018-10-09T03:03:51.232Z,8.06
2018-10-09T03:06:18.469Z,8.15
2018-10-09T03:08:45.716Z,7.84
2018-10-09T03:11:12.980Z,7.73
2018-10-09T03:13:40.316Z,7.83
2018-10-09T03:16:07.742Z,7.99
2018-10-09T03:18:34.976Z,7.83
2018-10-09T03:21:02.225Z,8.02
2018-10-09T03:23:29.487Z,7.98
2018-10-09T03:25:56.672Z,8.07
2018-10-09T03:28:23.914Z,8.15
2018-10-09T03:30:51.243Z,8.04
2018-10-09T03:33:18.528Z,8.11
2018-10-09T03:35:45.707Z,8.28
2018-10-09T03:38:12.920Z,8.26
2018-10-09T03:40:40.191Z,8.15
2018-10-09T03:43:07.440Z,8.21
2018-10-09T03:45:34.855Z,8.15
2018-10-09T03:48:02.066Z,7.95
2018-10-09T03:50:29.347Z,7.82
2018-10-09T03:52:56.638Z,7.35
2018-10-09T03:55:23.896Z,7.36
2018-10-09T03:57:51.201Z,7.51
2018-10-09T04:00:18.517Z,7.45
2018-10-09T04:02:45.727Z,7.41
2018-10-09T04:05:12.980Z,7.61
2018-10-09T04:07:40.260Z,7.84
2018-10-09T04:10:07.721Z,7.85
2018-10-09T04:12:34.983Z,7.89
2018-10-09T04:15:02.417Z,7.84
2018-10-09T04:17:29.648Z,7.69
2018-10-09T04:19:56.881Z,7.85
2018-10-09T04:22:24.121Z,7.65
2018-10-09T04:24:51.356Z,7.68
2018-10-09T04:27:19.644Z,7.80
2018-10-09T04:29:46.998Z,7.69
2018-10-09T04:32:14.265Z,7.80
2018-10-09T04:34:41.635Z,7.71
2018-10-09T04:37:09.085Z,7.85
2018-10-09T04:39:36.337Z,7.94
2018-10-09T04:42:03.666Z,7.65
2018-10-09T04:44:30.969Z,7.82
2018-10-09T04:46:58.456Z,7.90
2018-10-09T04:49:25.764Z,7.86
2018-10-09T04:51:53.073Z,7.87
2018-10-09T04:54:20.362Z,7.95
2018-10-09T04:56:47.682Z,7.94
2018-10-09T04:59:14.958Z,7.96
2018-10-09T05:01:42.210Z,7.93
2018-10-09T05:04:09.609Z,7.98
2018-10-09T05:06:36.928Z,7.93
2018-10-09T05:09:07.472Z,7.88
2018-10-09T05:11:34.717Z,7.74
2018-10-09T05:14:02.005Z,7.80
2018-10-09T05:16:29.224Z,7.92
2018-10-09T05:18:56.452Z,7.84
2018-10-09T05:21:23.712Z,7.91
2018-10-09T05:23:50.977Z,7.85
2018-10-09T05:26:18.293Z,7.92
2018-10-09T05:28:45.598Z,7.93
2018-10-09T05:31:12.892Z,8.00
2018-10-09T05:33:40.069Z,7.98
2018-10-09T05:36:07.364Z,8.07
2018-10-09T05:38:34.653Z,8.19
2018-10-09T05:41:01.953Z,8.69
2018-10-09T05:43:29.167Z,8.88
2018-10-09T05:45:56.473Z,8.55
2018-10-09T05:48:23.741Z,8.45
2018-10-09T05:50:50.953Z,8.39
2018-10-09T05:53:18.284Z,8.34
2018-10-09T05:55:45.542Z,8.30
2018-10-09T05:58:12.895Z,8.29
2018-10-09T06:00:40.008Z,8.31
2018-10-09T06:03:07.313Z,8.27
2018-10-09T06:05:34.589Z,8.21
2018-10-09T06:08:01.850Z,8.18
2018-10-09T06:10:29.092Z,8.07
2018-10-09T06:12:56.290Z,7.97
2018-10-09T06:15:23.604Z,7.96
2018-10-09T06:17:50.957Z,8.00
2018-10-09T06:20:18.207Z,7.93
2018-10-09T06:22:45.484Z,7.94
2018-10-09T06:25:12.756Z,7.89
2018-10-09T06:27:40.118Z,7.65
2018-10-09T06:30:07.482Z,7.61
2018-10-09T06:32:34.783Z,7.70
2018-10-09T06:35:03.102Z,7.77
2018-10-09T06:37:30.503Z,7.73
2018-10-09T06:39:57.890Z,7.56
2018-10-09T06:42:25.268Z,7.61
2018-10-09T06:44:52.642Z,7.47
2018-10-09T06:47:19.929Z,7.41
2018-10-09T06:49:47.177Z,7.43
2018-10-09T06:52:14.525Z,7.44
2018-10-09T06:54:42.010Z,7.46
2018-10-09T06:57:09.287Z,7.41
2018-10-09T06:59:36.744Z,7.25
2018-10-09T07:02:04.101Z,7.00
2018-10-09T07:04:31.651Z,7.33
2018-10-09T07:07:02.389Z,7.49
2018-10-09T07:09:33.098Z,7.55
2018-10-09T07:12:00.393Z,7.60
2018-10-09T07:14:27.753Z,7.69
2018-10-09T07:16:55.126Z,8.03
2018-10-09T07:19:22.472Z,8.15
2018-10-09T07:21:49.857Z,8.14
2018-10-09T07:24:17.180Z,8.30
2018-10-09T07:26:44.561Z,8.33
2018-10-09T07:29:11.966Z,8.24
2018-10-09T07:31:39.329Z,8.30
2018-10-09T07:34:06.734Z,8.48
2018-10-09T07:36:34.094Z,8.59
2018-10-09T07:39:01.405Z,8.57
2018-10-09T07:41:28.809Z,8.63
2018-10-09T07:43:56.263Z,8.73
2018-10-09T07:46:23.545Z,8.82
2018-10-09T07:48:51.011Z,8.83
2018-10-09T07:51:18.390Z,8.85
2018-10-09T07:53:45.676Z,9.07
2018-10-09T07:56:13.059Z,9.09
2018-10-09T07:58:40.416Z,9.14
2018-10-09T08:01:07.887Z,9.25
2018-10-09T08:03:35.249Z,9.24
2018-10-09T08:06:02.614Z,9.23
2018-10-09T08:08:29.993Z,9.28
2018-10-09T08:10:57.398Z,9.08
2018-10-09T08:13:24.817Z,9.29
2018-10-09T08:15:52.258Z,9.35
2018-10-09T08:18:19.525Z,9.52
2018-10-09T08:20:46.923Z,9.52
2018-10-09T08:23:14.304Z,9.55
2018-10-09T08:25:41.722Z,9.60
2018-10-09T08:28:09.162Z,9.69
2018-10-09T08:30:36.401Z,9.68
2018-10-09T08:33:03.965Z,9.77
2018-10-09T08:35:31.360Z,9.91
2018-10-09T08:37:58.691Z,10.02
2018-10-09T08:40:26.178Z,10.10
2018-10-09T08:42:53.482Z,10.19
2018-10-09T08:45:21.062Z,10.27
2018-10-09T08:47:48.523Z,10.23
2018-10-09T08:50:15.874Z,10.39
2018-10-09T08:52:43.254Z,10.42
2018-10-09T08:55:10.940Z,10.49
2018-10-09T08:57:38.291Z,10.26
2018-10-09T09:00:06.416Z,10.22
2018-10-09T09:02:33.801Z,9.90
2018-10-09T09:05:01.242Z,9.88
2018-10-09T09:07:28.610Z,10.34
2018-10-09T09:09:56.026Z,10.44
2018-10-09T09:12:23.473Z,10.85
2018-10-09T09:14:50.862Z,11.10
2018-10-09T09:17:18.210Z,11.40
2018-10-09T09:19:45.606Z,11.29
2018-10-09T09:22:13.020Z,11.38
2018-10-09T09:24:40.430Z,11.30
2018-10-09T09:27:08.008Z,11.33
2018-10-09T09:29:35.230Z,11.36
2018-10-09T09:32:02.581Z,11.55
2018-10-09T09:34:29.947Z,11.42
2018-10-09T09:36:57.387Z,11.57
2018-10-09T09:39:24.802Z,11.72
2018-10-09T09:41:52.316Z,11.87
2018-10-09T09:44:19.740Z,12.04
2018-10-09T09:46:47.163Z,12.14
2018-10-09T09:49:14.502Z,12.30
2018-10-09T09:51:41.949Z,12.54
2018-10-09T09:54:09.307Z,12.50
2018-10-09T09:56:36.721Z,12.50
2018-10-09T09:59:04.169Z,12.42
2018-10-09T10:01:36.962Z,12.53
2018-10-09T10:04:04.391Z,12.61
2018-10-09T10:06:31.788Z,12.82
2018-10-09T10:08:59.156Z,13.05
2018-10-09T10:11:26.528Z,13.00
2018-10-09T10:13:53.894Z,13.16
2018-10-09T10:16:21.465Z,13.10
2018-10-09T10:18:48.859Z,13.21
2018-10-09T10:21:16.600Z,13.44
2018-10-09T10:23:43.921Z,13.61
2018-10-09T10:26:11.292Z,13.55
2018-10-09T10:28:38.857Z,13.73
2018-10-09T10:31:06.276Z,13.87
2018-10-09T10:33:33.693Z,14.14
2018-10-09T10:36:01.120Z,14.20
2018-10-09T10:38:28.483Z,13.90
2018-10-09T10:40:55.803Z,13.43
2018-10-09T10:43:23.371Z,14.46
2018-10-09T10:45:50.692Z,14.62
2018-10-09T10:48:18.075Z,14.76
2018-10-09T10:50:45.381Z,14.60
2018-10-09T10:53:12.748Z,14.72
2018-10-09T10:55:40.094Z,14.89
2018-10-09T10:58:07.738Z,15.12
2018-10-09T11:00:35.082Z,15.05
2018-10-09T11:03:02.443Z,15.16
2018-10-09T11:05:29.812Z,15.29
2018-10-09T11:07:57.182Z,15.40
2018-10-09T11:10:24.582Z,15.72
2018-10-09T11:12:51.967Z,15.85
2018-10-09T11:15:19.360Z,15.66
2018-10-09T11:17:46.758Z,16.35
2018-10-09T11:20:14.102Z,16.57
2018-10-09T11:22:41.545Z,16.68
2018-10-09T11:25:08.989Z,16.46
2018-10-09T11:27:36.425Z,16.72
2018-10-09T11:30:04.289Z,16.64
2018-10-09T11:32:31.665Z,17.34
2018-10-09T11:34:59.013Z,17.41
2018-10-09T11:37:26.391Z,17.77
2018-10-09T11:39:53.676Z,18.02
2018-10-09T11:42:21.156Z,18.30
2018-10-09T11:44:48.631Z,18.36
2018-10-09T11:47:16.049Z,18.28
2018-10-09T11:49:43.518Z,18.24
2018-10-09T11:52:10.916Z,17.65
2018-10-09T11:54:38.269Z,17.59
2018-10-09T11:57:05.685Z,17.99
2018-10-09T11:59:33.006Z,18.20
2018-10-09T12:02:00.471Z,18.28
2018-10-09T12:04:27.882Z,18.66
2018-10-09T12:06:55.282Z,18.18
2018-10-09T12:09:22.664Z,17.98
2018-10-09T12:11:50.162Z,17.86
2018-10-09T12:14:17.466Z,17.91
2018-10-09T12:16:44.946Z,17.78
2018-10-09T12:19:12.334Z,18.34
2018-10-09T12:21:39.820Z,18.59
2018-10-09T12:24:07.185Z,18.38
2018-10-09T12:26:34.580Z,18.95
2018-10-09T12:29:01.933Z,19.18
2018-10-09T12:31:29.586Z,19.10
2018-10-09T12:33:56.974Z,18.41
2018-10-09T12:36:24.650Z,18.47
2018-10-09T12:38:52.025Z,18.63
2018-10-09T12:41:19.511Z,19.23
2018-10-09T12:43:46.938Z,19.71
2018-10-09T12:46:14.379Z,19.98
2018-10-09T12:48:41.769Z,20.07
2018-10-09T12:51:09.212Z,20.57
2018-10-09T12:53:36.575Z,20.95
2018-10-09T12:56:03.992Z,20.75
2018-10-09T12:58:31.387Z,21.31
2018-10-09T13:00:58.790Z,21.80
2018-10-09T13:03:26.222Z,22.26
2018-10-09T13:05:53.784Z,21.22
2018-10-09T13:08:21.524Z,21.09
2018-10-09T13:10:49.006Z,22.09
2018-10-09T13:13:16.513Z,21.83
2018-10-09T13:15:43.903Z,22.07
2018-10-09T13:18:11.294Z,21.79
2018-10-09T13:20:38.732Z,21.68
2018-10-09T13:23:07.487Z,22.26
2018-10-09T13:25:35.090Z,22.75
2018-10-09T13:28:02.525Z,22.67
2018-10-09T13:30:30.036Z,22.73
2018-10-09T13:32:57.478Z,22.89
2018-10-09T13:35:25.173Z,23.24
2018-10-09T13:37:52.742Z,23.44
2018-10-09T13:40:20.272Z,23.06
2018-10-09T13:42:47.877Z,21.75
2018-10-09T13:45:15.388Z,21.56
2018-10-09T13:47:42.992Z,22.53
2018-10-09T13:50:10.423Z,22.70
2018-10-09T13:52:37.914Z,22.57
2018-10-09T13:55:05.592Z,22.30
2018-10-09T13:57:33.046Z,22.33
2018-10-09T14:00:00.484Z,23.32
2018-10-09T14:02:27.964Z,23.05
2018-10-09T14:04:55.426Z,23.56
2018-10-09T14:07:22.876Z,24.27
2018-10-09T14:09:50.354Z,23.49
2018-10-09T14:12:17.789Z,22.74
2018-10-09T14:14:45.194Z,23.90
2018-10-09T14:17:12.858Z,24.66
2018-10-09T14:19:40.248Z,23.97
2018-10-09T14:22:07.729Z,24.55
2018-10-09T14:24:35.516Z,24.81
2018-10-09T14:27:03.147Z,24.72
2018-10-09T14:29:30.541Z,24.88
2018-10-09T14:31:58.309Z,24.94
2018-10-09T14:34:27.842Z,24.40
2018-10-09T14:36:55.940Z,24.57
2018-10-09T14:39:39.458Z,25.13
2018-10-09T14:42:12.556Z,24.86
2018-10-09T14:44:40.264Z,23.58
2018-10-09T14:47:07.742Z,23.46
2018-10-09T14:49:35.244Z,23.43
2018-10-09T14:52:02.771Z,23.49
2018-10-09T14:54:30.326Z,24.16
2018-10-09T14:56:57.824Z,24.17
2018-10-09T14:59:25.315Z,23.73
2018-10-09T15:01:52.683Z,24.16
2018-10-09T15:04:20.255Z,24.33
2018-10-09T15:06:47.822Z,23.90
2018-10-09T15:09:15.337Z,24.18
2018-10-09T15:11:43.486Z,23.81
2018-10-09T15:14:11.238Z,23.31
2018-10-09T15:16:38.850Z,23.03
2018-10-09T15:19:07.100Z,23.17
2018-10-09T15:21:34.718Z,22.04
2018-10-09T15:24:02.190Z,21.83
2018-10-09T15:26:29.673Z,21.71
2018-10-09T15:28:57.314Z,20.90
2018-10-09T15:31:24.746Z,20.58
2018-10-09T15:33:52.195Z,20.40
2018-10-09T15:36:19.752Z,20.53
2018-10-09T15:38:47.782Z,20.11
2018-10-09T15:41:15.307Z,19.88
2018-10-09T15:43:42.672Z,19.70
2018-10-09T15:46:10.090Z,19.66
2018-10-09T15:48:37.588Z,19.58
2018-10-09T15:51:05.082Z,19.36
2018-10-09T15:53:32.533Z,19.24
2018-10-09T15:56:00.067Z,19.17
2018-10-09T15:58:28.358Z,19.20
2018-10-09T16:00:55.736Z,19.20
2018-10-09T16:03:23.871Z,19.23
2018-10-09T16:05:51.837Z,19.04
2018-10-09T16:08:19.282Z,18.92
2018-10-09T16:10:46.800Z,18.87
2018-10-09T16:13:14.226Z,18.68
2018-10-09T16:15:41.701Z,18.58
2018-10-09T16:18:09.286Z,18.42
2018-10-09T16:20:36.800Z,18.25
2018-10-09T16:23:04.135Z,17.93
2018-10-09T16:25:31.562Z,17.72
2018-10-09T16:27:59.146Z,17.68
2018-10-09T16:30:26.660Z,17.60
2018-10-09T16:32:54.293Z,17.34
2018-10-09T16:35:21.742Z,17.16
2018-10-09T16:37:49.189Z,17.13
2018-10-09T16:40:16.661Z,17.07
2018-10-09T16:42:44.121Z,17.09
2018-10-09T16:45:11.493Z,17.04
2018-10-09T16:47:38.920Z,16.97
2018-10-09T16:50:06.291Z,16.91
2018-10-09T16:52:33.690Z,16.87
2018-10-09T16:55:01.052Z,16.89
2018-10-09T16:57:28.550Z,16.81
2018-10-09T16:59:56.024Z,16.77
2018-10-09T17:02:23.491Z,16.58
2018-10-09T17:04:50.944Z,16.53
2018-10-09T17:07:18.778Z,16.39
2018-10-09T17:09:46.284Z,16.37
2018-10-09T17:12:13.799Z,16.33
2018-10-09T17:14:41.269Z,16.29
2018-10-09T17:17:08.705Z,16.16
2018-10-09T17:19:36.248Z,16.04
2018-10-09T17:22:03.766Z,16.02
2018-10-09T17:24:31.431Z,15.94
2018-10-09T17:26:58.941Z,15.86
2018-10-09T17:29:26.610Z,15.79
2018-10-09T17:31:54.228Z,15.70
2018-10-09T17:34:21.660Z,15.69
2018-10-09T17:36:51.551Z,15.63
2018-10-09T17:39:19.120Z,15.51
2018-10-09T17:41:46.693Z,15.45
2018-10-09T17:44:14.167Z,14.47
2018-10-09T17:46:41.671Z,15.29
2018-10-09T17:49:09.115Z,15.14
2018-10-09T17:51:36.514Z,15.03
2018-10-09T17:54:03.914Z,14.85
2018-10-09T17:56:31.425Z,14.71
2018-10-09T17:58:58.847Z,14.81
2018-10-09T18:01:26.324Z,14.65
2018-10-09T18:03:53.818Z,14.67
2018-10-09T18:06:21.270Z,14.65
2018-10-09T18:08:48.864Z,14.47
2018-10-09T18:11:16.386Z,14.36
2018-10-09T18:13:44.044Z,14.42
2018-10-09T18:16:11.531Z,14.14
2018-10-09T18:18:39.036Z,13.96
2018-10-09T18:21:06.617Z,13.92
2018-10-09T18:23:33.989Z,13.87
2018-10-09T18:26:01.866Z,12.26
2018-10-09T18:28:29.452Z,13.77
2018-10-09T18:30:57.232Z,13.81
2018-10-09T18:33:24.667Z,13.86
2018-10-09T18:35:52.201Z,13.88
2018-10-09T18:51:14.322Z,13.79
2018-10-09T18:53:42.044Z,13.26
2018-10-09T18:56:09.615Z,13.17
2018-10-09T18:58:37.172Z,13.16
2018-10-09T19:01:04.829Z,13.21
2018-10-09T19:03:32.413Z,13.20
2018-10-09T19:05:59.992Z,13.09
2018-10-09T19:08:27.528Z,13.09
2018-10-09T19:10:55.087Z,13.12
2018-10-09T19:13:22.602Z,12.99
2018-10-09T19:15:50.092Z,12.94
2018-10-09T19:18:17.672Z,12.72
2018-10-09T19:20:45.177Z,12.40
2018-10-09T19:23:12.838Z,12.34
2018-10-09T19:25:40.355Z,12.35
2018-10-09T19:28:08.459Z,12.49
2018-10-09T19:30:36.230Z,12.42
2018-10-09T19:33:03.768Z,12.42
2018-10-09T19:35:31.350Z,12.42
2018-10-09T19:37:58.783Z,12.25
2018-10-09T19:40:26.276Z,12.28
2018-10-09T19:42:53.823Z,12.32
2018-10-09T19:45:21.392Z,12.11
2018-10-09T19:47:48.832Z,12.01
2018-10-09T19:50:16.237Z,11.90
2018-10-09T19:52:43.710Z,11.83
2018-10-09T19:55:11.198Z,11.75
2018-10-09T19:57:38.577Z,11.75
2018-10-09T20:00:07.075Z,11.39
2018-10-09T20:02:34.478Z,10.79
2018-10-09T20:05:02.134Z,11.34
2018-10-09T20:07:29.557Z,11.47
2018-10-09T20:09:57.058Z,11.46
2018-10-09T20:12:24.710Z,11.55
2018-10-09T20:14:53.462Z,11.58
2018-10-09T20:17:21.166Z,11.40
2018-10-09T20:19:48.588Z,11.39
2018-10-09T20:22:16.126Z,11.42
2018-10-09T20:24:43.660Z,11.31
2018-10-09T20:27:11.156Z,11.31
2018-10-09T20:29:38.683Z,11.27
2018-10-09T20:32:06.365Z,11.18
2018-10-09T20:34:33.894Z,11.11
2018-10-09T20:37:01.464Z,10.90
2018-10-09T20:39:29.373Z,11.04
2018-10-09T20:41:56.913Z,11.10
2018-10-09T20:44:24.262Z,11.07
2018-10-09T20:46:51.752Z,10.89
2018-10-09T20:49:19.194Z,10.68
2018-10-09T20:51:46.638Z,10.79
2018-10-09T20:54:14.053Z,10.77
2018-10-09T20:56:41.515Z,10.76
2018-10-09T20:59:09.044Z,10.35
2018-10-09T21:01:36.582Z,10.42
2018-10-09T21:04:04.049Z,10.48
2018-10-09T21:06:31.617Z,10.59
2018-10-09T21:08:58.988Z,10.52
2018-10-09T21:11:26.273Z,10.46
2018-10-09T21:13:53.753Z,10.33
2018-10-09T21:16:21.049Z,10.15
2018-10-09T21:18:48.359Z,9.96
2018-10-09T21:21:15.779Z,9.94
2018-10-09T21:23:43.002Z,10.16
2018-10-09T21:26:10.449Z,10.12
2018-10-09T21:28:37.724Z,10.28
2018-10-09T21:31:05.144Z,10.27
2018-10-09T21:33:32.448Z,10.28
2018-10-09T21:35:59.723Z,10.16
2018-10-09T21:38:27.147Z,10.18
2018-10-09T21:40:54.432Z,10.26
2018-10-09T21:43:21.817Z,10.15
2018-10-09T21:45:49.168Z,9.93
2018-10-09T21:48:16.434Z,9.84
2018-10-09T21:50:43.755Z,9.61
2018-10-09T21:53:11.226Z,9.74
2018-10-09T21:55:38.623Z,9.78
2018-10-09T21:58:05.970Z,9.72
2018-10-09T22:00:38.983Z,9.43
2018-10-09T22:03:06.265Z,9.58
2018-10-09T22:05:33.569Z,9.62
2018-10-09T22:08:00.816Z,9.44
2018-10-09T22:10:28.055Z,9.59
2018-10-09T22:12:55.695Z,9.00
2018-10-09T22:15:22.915Z,9.48
2018-10-09T22:17:50.251Z,9.46
2018-10-09T22:20:17.553Z,9.47
2018-10-09T22:22:44.853Z,9.34
2018-10-09T22:25:12.141Z,9.23
2018-10-09T22:27:39.485Z,9.16
2018-10-09T22:30:06.822Z,9.18
2018-10-09T22:32:34.080Z,9.14
2018-10-09T22:35:01.660Z,9.10
2018-10-09T22:37:28.981Z,9.13
2018-10-09T22:39:56.377Z,9.09
2018-10-09T22:42:23.621Z,8.76
2018-10-09T22:44:50.893Z,8.99
2018-10-09T22:47:18.147Z,8.93
2018-10-09T22:49:45.406Z,9.03
2018-10-09T22:52:12.688Z,9.06
2018-10-09T22:54:39.945Z,8.98
2018-10-09T22:57:07.244Z,8.85
2018-10-09T22:59:34.522Z,8.86
2018-10-09T23:02:01.807Z,8.77
2018-10-09T23:04:29.073Z,8.62
2018-10-09T23:06:56.383Z,8.68
2018-10-09T23:09:23.596Z,8.54
2018-10-09T23:11:50.844Z,8.62
2018-10-09T23:14:18.118Z,8.69
2018-10-09T23:16:45.372Z,8.74
2018-10-09T23:19:12.632Z,8.86
2018-10-09T23:21:39.921Z,8.84
2018-10-09T23:24:07.232Z,8.84
2018-10-09T23:26:34.507Z,8.74
2018-10-09T23:29:01.812Z,8.62
2018-10-09T23:31:29.172Z,8.51
2018-10-09T23:33:56.439Z,8.50
2018-10-09T23:36:23.730Z,8.55
2018-10-09T23:38:50.989Z,8.53
2018-10-09T23:41:18.183Z,8.45
2018-10-09T23:43:45.605Z,8.37
2018-10-09T23:46:12.904Z,8.32
2018-10-09T23:48:40.215Z,8.38
2018-10-09T23:51:07.501Z,8.24
2018-10-09T23:53:34.924Z,8.31
2018-10-09T23:56:02.184Z,8.35
2018-10-09T23:58:29.422Z,8.28
